Time;durP1;ratioP1;P1;durP2;ratioP2;P2;SDS_P1;SDS_P2;PMS_P1;PMS_P2;Temp;Humidity;BMP_temperature;BMP_pressure;BME280_temperature;BME280_humidity;BME280_pressure;Samples;Min_cycle;Max_cycle;Signal;HPM_P1;HPM_P2
2024/03/23 00:00:03;;;;;;;;;;;;;;;19.88;48.66;100412.06;2059829;28;6017;-71
2024/03/23 00:01:04;;;;;;;;;;;;;;;19.88;48.59;100409.19;2059489;28;2572;-71
2024/03/23 00:02:05;;;;;;;;;;;;;;;19.88;48.70;100409.19;2058546;28;2085;-72
2024/03/23 00:03:06;;;;;;;;;;;;;;;19.87;48.75;100402.00;2059447;28;1750;-72
2024/03/23 00:04:07;;;;;;;;;;;;;;;19.87;48.73;100402.72;2059862;28;2262;-72
2024/03/23 00:05:08;;;;;;;;;;;;;;;19.87;48.80;100402.00;2058872;28;2335;-72
2024/03/23 00:06:09;;;;;;;;;;;;;;;19.87;48.64;100402.00;2060180;28;2418;-71
2024/03/23 00:07:10;;;;;;;;;;;;;;;19.87;48.78;100407.72;2053229;28;2314;-72
2024/03/23 00:08:11;;;;;;;;;;;;;;;19.87;48.65;100399.13;2056445;28;2285;-71
2024/03/23 00:09:12;;;;;;;;;;;;;;;19.86;48.62;100394.78;2059434;28;2297;-72
2024/03/23 00:10:13;;;;;;;;;;;;;;;19.86;48.68;100400.53;2052022;28;2290;-72
2024/03/23 00:11:14;;;;;;;;;;;;;;;19.85;48.67;100399.03;2052463;28;2638;-72
2024/03/23 00:12:14;;;;;;;;;;;;;;;19.85;48.66;100382.53;2058608;28;2628;-72
2024/03/23 00:13:15;;;;;;;;;;;;;;;19.85;48.72;100387.53;2059628;28;1839;-72
2024/03/23 00:14:16;;;;;;;;;;;;;;;19.84;48.73;100380.31;2059011;28;2156;-71
2024/03/23 00:15:17;;;;;;;;;;;;;;;19.84;48.73;100380.31;2053415;28;2177;-72
2024/03/23 00:16:18;;;;;;;;;;;;;;;19.84;48.74;100386.06;2060893;28;1747;-72
2024/03/23 00:17:19;;;;;;;;;;;;;;;19.84;48.63;100386.06;2059468;28;2144;-72
2024/03/23 00:18:23;;;;;;;;;;;;;;;19.84;48.73;100377.44;2053866;28;1762;-71
2024/03/23 00:19:24;;;;;;;;;;;;;;;19.81;48.67;100375.88;2049801;28;2286;-73
2024/03/23 00:20:25;;;;;;;;;;;;;;;19.79;48.67;100373.66;2059069;28;2301;-71
2024/03/23 00:21:26;;;;;;;;;;;;;;;19.79;48.68;100372.91;2061300;28;1656;-72
2024/03/23 00:22:27;;;;;;;;;;;;;;;19.80;48.68;100374.41;2053096;28;2143;-71
2024/03/23 00:23:28;;;;;;;;;;;;;;;19.78;48.71;100366.44;2052540;28;2385;-72
2024/03/23 00:24:30;;;;;;;;;;;;;;;19.78;48.71;100360.69;2052921;28;2302;-72
2024/03/23 00:25:31;;;;;;;;;;;;;;;19.78;48.71;100359.94;2059993;28;1665;-72
2024/03/23 00:26:32;;;;;;;;;;;;;;;19.78;48.70;100354.22;2060780;28;2227;-71
2024/03/23 00:27:33;;;;;;;;;;;;;;;19.78;48.77;100354.22;2051661;28;2309;-72
2024/03/23 00:28:34;;;;;;;;;;;;;;;19.78;48.75;100351.34;2060218;28;1717;-71
2024/03/23 00:29:35;;;;;;;;;;;;;;;19.77;48.79;100349.84;2056561;28;2533;-72
2024/03/23 00:30:37;;;;;;;;;;;;;;;19.77;48.82;100344.09;2057072;28;6766;-71
2024/03/23 00:31:37;;;;;;;;;;;;;;;19.78;48.82;100342.72;2053855;28;1607;-72
2024/03/23 00:32:38;;;;;;;;;;;;;;;19.75;48.66;100339.03;2051667;28;2374;-72
2024/03/23 00:33:39;;;;;;;;;;;;;;;19.76;48.70;100342.63;2051695;28;2357;-72
2024/03/23 00:34:40;;;;;;;;;;;;;;;19.93;48.40;100341.13;2061715;28;1628;-71
2024/03/23 00:35:41;;;;;;;;;;;;;;;19.87;48.31;100338.78;2060331;28;2325;-72
2024/03/23 00:36:42;;;;;;;;;;;;;;;19.79;48.52;100333.44;2052056;28;2301;-72
2024/03/23 00:37:43;;;;;;;;;;;;;;;19.76;48.64;100339.75;2053205;28;1645;-71
2024/03/23 00:38:44;;;;;;;;;;;;;;;19.75;48.54;100332.56;2051786;28;2453;-72
2024/03/23 00:39:45;;;;;;;;;;;;;;;19.76;48.75;100331.13;2058919;28;2454;-72
2024/03/23 00:40:46;;;;;;;;;;;;;;;19.75;48.70;100332.56;2061184;28;2060;-72
2024/03/23 00:41:47;;;;;;;;;;;;;;;19.74;48.72;100331.06;2052129;28;1666;-71
2024/03/23 00:42:48;;;;;;;;;;;;;;;19.75;48.77;100338.28;2060197;28;2015;-72
2024/03/23 00:43:49;;;;;;;;;;;;;;;19.73;48.80;100332.47;2057958;28;2081;-72
2024/03/23 00:44:50;;;;;;;;;;;;;;;19.72;48.84;100334.56;2052319;28;2121;-72
2024/03/23 00:45:51;;;;;;;;;;;;;;;19.72;48.80;100337.44;2051803;28;2247;-71
2024/03/23 00:46:52;;;;;;;;;;;;;;;19.72;48.71;100333.84;2051550;28;2382;-72
2024/03/23 00:47:53;;;;;;;;;;;;;;;19.70;48.87;100336.63;2060437;28;2179;-71
2024/03/23 00:48:53;;;;;;;;;;;;;;;19.70;48.84;100336.63;2059440;28;2371;-72
2024/03/23 00:49:54;;;;;;;;;;;;;;;19.69;48.84;100326.56;2057846;28;2356;-72
2024/03/23 00:50:55;;;;;;;;;;;;;;;19.70;48.67;100325.13;2061556;28;1610;-72
2024/03/23 00:51:56;;;;;;;;;;;;;;;19.69;48.78;100323.69;2061577;28;1701;-71
2024/03/23 00:52:57;;;;;;;;;;;;;;;19.70;48.78;100319.41;2052319;28;1707;-72
2024/03/23 00:53:58;;;;;;;;;;;;;;;19.70;48.60;100325.13;2051676;28;2153;-71
2024/03/23 00:54:58;;;;;;;;;;;;;;;19.70;48.63;100325.13;2060692;28;2292;-72
2024/03/23 00:55:58;;;;;;;;;;;;;;;19.70;48.56;100316.53;2059937;28;1884;-71
2024/03/23 00:56:59;;;;;;;;;;;;;;;19.70;48.61;100310.78;2052361;28;2125;-72
2024/03/23 00:57:59;;;;;;;;;;;;;;;19.69;48.69;100315.78;2051189;28;2358;-71
2024/03/23 00:59:00;;;;;;;;;;;;;;;19.68;48.79;100317.16;2051943;28;2182;-72
2024/03/23 01:00:00;;;;;;;;;;;;;;;19.69;48.83;100312.19;2056155;28;1702;-72
2024/03/23 01:01:02;;;;;;;;;;;;;;;19.67;48.76;100307.78;2061886;28;6029;-71
2024/03/23 01:02:02;;;;;;;;;;;;;;;19.69;48.63;100312.19;2061370;28;2254;-71
2024/03/23 01:03:03;;;;;;;;;;;;;;;19.70;48.72;100307.91;2060004;28;2348;-72
2024/03/23 01:04:03;;;;;;;;;;;;;;;19.69;48.61;100312.19;2068541;28;2322;-72
2024/03/23 01:05:04;;;;;;;;;;;;;;;19.70;48.75;100307.91;2059854;28;2390;-71
2024/03/23 01:06:04;;;;;;;;;;;;;;;19.69;48.44;100301.44;2060583;28;2372;-72
2024/03/23 01:07:05;;;;;;;;;;;;;;;19.69;48.73;100309.31;2060468;28;2380;-72
2024/03/23 01:08:05;;;;;;;;;;;;;;;19.69;48.54;100312.91;2061870;28;2076;-72
2024/03/23 01:09:06;;;;;;;;;;;;;;;19.70;48.71;100302.16;2054236;28;2164;-71
2024/03/23 01:10:06;;;;;;;;;;;;;;;19.68;48.74;100311.44;2055575;28;1835;-72
2024/03/23 01:11:07;;;;;;;;;;;;;;;19.69;48.63;100306.44;2054896;28;1616;-72
2024/03/23 01:12:07;;;;;;;;;;;;;;;19.67;48.63;100304.91;2061606;28;1676;-72
2024/03/23 01:13:07;;;;;;;;;;;;;;;19.67;48.57;100304.91;2053328;28;2128;-71
2024/03/23 01:14:08;;;;;;;;;;;;;;;19.69;48.62;100309.31;2051992;28;2378;-72
2024/03/23 01:15:08;;;;;;;;;;;;;;;19.69;48.67;100300.69;2068626;28;2252;-72
2024/03/23 01:16:09;;;;;;;;;;;;;;;19.69;48.65;100300.69;2062707;28;2123;-71
2024/03/23 01:17:09;;;;;;;;;;;;;;;19.69;48.53;100309.31;2054335;28;1889;-72
2024/03/23 01:18:09;;;;;;;;;;;;;;;19.67;48.45;100298.44;2059362;28;2397;-72
2024/03/23 01:19:10;;;;;;;;;;;;;;;19.68;48.58;100299.94;2051141;28;2397;-71
2024/03/23 01:20:10;;;;;;;;;;;;;;;19.67;48.62;100299.19;2062289;28;2179;-71
2024/03/23 01:21:11;;;;;;;;;;;;;;;19.67;48.57;100304.19;2053916;28;1838;-72
2024/03/23 01:22:11;;;;;;;;;;;;;;;19.66;48.64;100294.84;2062597;28;1610;-71
2024/03/23 01:23:11;;;;;;;;;;;;;;;19.67;48.56;100296.31;2059814;28;2030;-71
2024/03/23 01:24:12;;;;;;;;;;;;;;;19.67;48.49;100289.81;2049046;28;2084;-72
2024/03/23 01:25:13;;;;;;;;;;;;;;;19.66;48.36;100291.97;2061650;28;2383;-72
2024/03/23 01:26:13;;;;;;;;;;;;;;;19.66;48.59;100289.09;2061473;28;1700;-72
2024/03/23 01:27:14;;;;;;;;;;;;;;;19.67;48.63;100279.06;2054451;28;1750;-71
2024/03/23 01:28:14;;;;;;;;;;;;;;;19.66;48.51;100266.13;2052934;28;2005;-71
2024/03/23 01:29:15;;;;;;;;;;;;;;;19.65;48.63;100267.53;2060906;28;1673;-71
2024/03/23 01:30:16;;;;;;;;;;;;;;;19.65;48.73;100261.78;2059418;28;6147;-72
2024/03/23 01:31:16;;;;;;;;;;;;;;;19.65;48.59;100261.03;2054681;28;1639;-72
2024/03/23 01:32:16;;;;;;;;;;;;;;;19.65;48.67;100266.75;2062291;28;1961;-71
2024/03/23 01:33:17;;;;;;;;;;;;;;;19.65;48.83;100261.78;2051904;28;2144;-71
2024/03/23 01:34:17;;;;;;;;;;;;;;;19.66;48.59;100256.78;2051515;28;2309;-71
2024/03/23 01:35:17;;;;;;;;;;;;;;;19.65;48.64;100267.53;2062261;28;1642;-72
2024/03/23 01:36:18;;;;;;;;;;;;;;;19.64;48.67;100268.16;2061953;28;1685;-71
2024/03/23 01:37:18;;;;;;;;;;;;;;;19.64;48.67;100276.78;2054818;28;1711;-71
2024/03/23 01:38:19;;;;;;;;;;;;;;;19.63;48.63;100264.56;2060811;28;2049;-71
2024/03/23 01:39:19;;;;;;;;;;;;;;;19.62;48.64;100262.34;2053078;28;2122;-72
2024/03/23 01:40:20;;;;;;;;;;;;;;;19.63;48.70;100261.69;2054685;28;2336;-72
2024/03/23 01:41:20;;;;;;;;;;;;;;;19.64;48.53;100265.31;2058774;28;2376;-71
2024/03/23 01:42:21;;;;;;;;;;;;;;;19.64;48.61;100248.06;2054423;28;2218;-71
2024/03/23 01:43:21;;;;;;;;;;;;;;;19.63;48.63;100258.81;2052330;28;2422;-72
2024/03/23 01:44:22;;;;;;;;;;;;;;;19.63;48.61;100255.94;2059968;28;1961;-71
2024/03/23 01:45:23;;;;;;;;;;;;;;;19.62;48.49;100265.94;2054031;28;2101;-71
2024/03/23 01:46:23;;;;;;;;;;;;;;;19.63;48.66;100267.44;2062829;28;1597;-72
2024/03/23 01:47:24;;;;;;;;;;;;;;;19.64;48.57;100262.44;2062049;28;1629;-71
2024/03/23 01:48:24;;;;;;;;;;;;;;;19.61;48.74;100255.88;2058229;28;2309;-72
2024/03/23 01:49:25;;;;;;;;;;;;;;;19.62;48.60;100257.34;2060852;28;2373;-71
2024/03/23 01:50:26;;;;;;;;;;;;;;;19.63;48.60;100247.34;2053314;28;2523;-72
2024/03/23 01:51:27;;;;;;;;;;;;;;;19.63;48.59;100247.34;2059764;28;2126;-72
2024/03/23 01:52:27;;;;;;;;;;;;;;;19.63;48.63;100243.72;2059954;28;2257;-71
2024/03/23 01:53:28;;;;;;;;;;;;;;;19.62;48.47;100237.22;2061496;28;2300;-72
2024/03/23 01:54:29;;;;;;;;;;;;;;;19.62;48.58;100251.59;2056115;28;2089;-72
2024/03/23 01:55:29;;;;;;;;;;;;;;;19.62;48.55;100251.59;2059959;28;2167;-71
2024/03/23 01:56:32;;;;;;;;;;;;;;;19.62;48.58;100245.13;2061129;28;1669;-71
2024/03/23 01:57:33;;;;;;;;;;;;;;;19.62;48.48;100250.84;2053971;28;1817;-71
2024/03/23 01:58:33;;;;;;;;;;;;;;;19.62;48.52;100242.97;2059918;28;2294;-72
2024/03/23 01:59:34;;;;;;;;;;;;;;;19.60;48.44;100231.41;2060692;28;2292;-72
2024/03/23 02:00:34;;;;;;;;;;;;;;;19.61;48.67;100243.66;2057917;28;6770;-71
2024/03/23 02:01:36;;;;;;;;;;;;;;;19.61;48.50;100244.38;2061796;28;2229;-70
2024/03/23 02:02:37;;;;;;;;;;;;;;;19.61;48.68;100244.38;2068651;28;2110;-71
2024/03/23 02:03:37;;;;;;;;;;;;;;;19.62;48.54;100242.25;2060918;28;2235;-72
2024/03/23 02:04:37;;;;;;;;;;;;;;;19.62;48.34;100237.22;2062776;28;2264;-71
2024/03/23 02:05:38;;;;;;;;;;;;;;;19.61;48.45;100250.13;2069026;28;2359;-71
2024/03/23 02:06:38;;;;;;;;;;;;;;;19.61;48.50;100232.91;2060456;28;2254;-72
2024/03/23 02:07:39;;;;;;;;;;;;;;;19.61;48.62;100238.63;2053044;28;2306;-72
2024/03/23 02:08:40;;;;;;;;;;;;;;;19.61;48.52;100232.91;2053901;28;2239;-72
2024/03/23 02:09:41;;;;;;;;;;;;;;;19.60;48.52;100245.75;2061028;28;2313;-72
2024/03/23 02:10:42;;;;;;;;;;;;;;;19.60;48.51;100237.16;2069019;28;2339;-72
2024/03/23 02:11:42;;;;;;;;;;;;;;;19.60;48.54;100234.28;2068701;28;2442;-72
2024/03/23 02:12:43;;;;;;;;;;;;;;;19.59;48.57;100229.94;2061290;28;2308;-71
2024/03/23 02:13:43;;;;;;;;;;;;;;;19.59;48.57;100232.06;2060703;28;2280;-72
2024/03/23 02:14:44;;;;;;;;;;;;;;;19.59;48.56;100235.69;2068251;28;1970;-71
2024/03/23 02:15:44;;;;;;;;;;;;;;;19.59;48.44;100232.81;2065313;28;2111;-71
2024/03/23 02:16:46;;;;;;;;;;;;;;;19.60;48.45;100233.53;2068964;28;2379;-71
2024/03/23 02:17:46;;;;;;;;;;;;;;;19.60;48.49;100233.53;2061415;28;2056;-72
2024/03/23 02:18:47;;;;;;;;;;;;;;;19.59;48.37;100229.94;2067774;28;2252;-72
2024/03/23 02:19:48;;;;;;;;;;;;;;;19.58;48.58;100231.31;2060987;28;2352;-71
2024/03/23 02:20:48;;;;;;;;;;;;;;;19.59;48.46;100227.06;2069000;28;2079;-72
2024/03/23 02:21:48;;;;;;;;;;;;;;;19.58;48.49;100221.97;2069897;28;1940;-72
2024/03/23 02:22:52;;;;;;;;;;;;;;;19.59;48.44;100217.72;2064858;28;2264;-72
2024/03/23 02:23:53;;;;;;;;;;;;;;;19.57;48.53;100206.88;2059927;28;2297;-65
2024/03/23 02:24:53;;;;;;;;;;;;;;;19.58;48.60;100214.09;2068637;28;1686;-74
2024/03/23 02:25:54;;;;;;;;;;;;;;;19.57;48.55;100206.88;2062138;28;1574;-74
2024/03/23 02:26:54;;;;;;;;;;;;;;;19.57;48.55;100198.25;2060243;28;1851;-64
2024/03/23 02:27:55;;;;;;;;;;;;;;;19.57;48.64;100204.00;2059281;28;2084;-64
2024/03/23 02:28:55;;;;;;;;;;;;;;;19.57;48.56;100197.53;2059603;28;2158;-64
2024/03/23 02:29:55;;;;;;;;;;;;;;;19.56;48.57;100202.53;2060105;28;1870;-64
2024/03/23 02:30:56;;;;;;;;;;;;;;;19.56;48.53;100204.66;2048977;28;6260;-64
2024/03/23 02:31:58;;;;;;;;;;;;;;;19.55;48.67;100201.06;2051024;28;2027;-64
2024/03/23 02:32:59;;;;;;;;;;;;;;;19.57;48.52;100203.28;2051535;28;1640;-64
2024/03/23 02:33:59;;;;;;;;;;;;;;;19.57;48.39;100206.16;2044725;28;2177;-64
2024/03/23 02:34:59;;;;;;;;;;;;;;;19.57;48.57;100204.00;2042463;28;2439;-64
2024/03/23 02:36:00;;;;;;;;;;;;;;;19.56;48.54;100204.66;2045536;28;2264;-64
2024/03/23 02:37:00;;;;;;;;;;;;;;;19.55;48.58;100206.81;2045240;28;2149;-64
2024/03/23 02:38:01;;;;;;;;;;;;;;;19.54;48.50;100211.09;2043314;28;2375;-64
2024/03/23 02:39:01;;;;;;;;;;;;;;;19.53;48.54;100206.72;2044596;28;2319;-64
2024/03/23 02:40:01;;;;;;;;;;;;;;;19.53;48.54;100203.84;2044067;28;2287;-64
2024/03/23 02:41:03;;;;;;;;;;;;;;;19.53;48.59;100203.84;2044345;28;2259;-63
2024/03/23 02:42:03;;;;;;;;;;;;;;;19.53;48.44;100203.13;2045145;28;1825;-64
2024/03/23 02:43:04;;;;;;;;;;;;;;;19.53;48.49;100200.97;2045417;28;2206;-64
2024/03/23 02:44:04;;;;;;;;;;;;;;;19.53;48.64;100198.09;2052722;28;2026;-64
2024/03/23 02:45:05;;;;;;;;;;;;;;;19.53;48.32;100200.25;2045314;28;2171;-64
2024/03/23 02:46:05;;;;;;;;;;;;;;;19.54;48.44;100193.09;2045390;28;2123;-64
2024/03/23 02:47:06;;;;;;;;;;;;;;;19.55;48.46;100194.56;2052082;28;1959;-64
2024/03/23 02:48:06;;;;;;;;;;;;;;;19.54;48.45;100188.09;2053313;28;1754;-64
2024/03/23 02:49:07;;;;;;;;;;;;;;;19.54;48.50;100187.34;2044149;28;2078;-64
2024/03/23 02:50:08;;;;;;;;;;;;;;;19.53;48.58;100194.50;2050097;28;2303;-64
2024/03/23 02:51:09;;;;;;;;;;;;;;;19.53;48.48;100186.63;2055193;28;2351;-64
2024/03/23 02:52:09;;;;;;;;;;;;;;;19.53;48.48;100189.50;2046799;28;1708;-64
2024/03/23 02:53:10;;;;;;;;;;;;;;;19.52;48.54;100196.63;2045697;28;1776;-64
2024/03/23 02:54:10;;;;;;;;;;;;;;;19.53;48.39;100180.88;2042606;28;2107;-64
2024/03/23 02:55:11;;;;;;;;;;;;;;;19.53;48.47;100186.63;2047167;28;1680;-64
2024/03/23 02:56:15;;;;;;;;;;;;;;;19.53;48.49;100197.38;2046254;28;1812;-64
2024/03/23 02:57:16;;;;;;;;;;;;;;;19.53;48.41;100186.63;2045601;28;2095;-64
2024/03/23 02:58:16;;;;;;;;;;;;;;;19.53;48.54;100185.88;2046102;28;1660;-64
2024/03/23 02:59:16;;;;;;;;;;;;;;;19.52;48.46;100185.16;2044247;28;2344;-64
2024/03/23 03:00:17;;;;;;;;;;;;;;;19.52;48.45;100184.41;2043175;28;6149;-64
2024/03/23 03:01:17;;;;;;;;;;;;;;;19.52;48.48;100179.41;2052111;28;2042;-64
2024/03/23 03:02:18;;;;;;;;;;;;;;;19.52;48.49;100185.16;2044002;29;1601;-64
2024/03/23 03:03:18;;;;;;;;;;;;;;;19.52;48.47;100175.81;2043880;28;2364;-64
2024/03/23 03:04:19;;;;;;;;;;;;;;;19.51;48.31;100177.91;2052015;28;2313;-64
2024/03/23 03:05:19;;;;;;;;;;;;;;;19.51;48.26;100171.44;2052865;28;2282;-64
2024/03/23 03:06:23;;;;;;;;;;;;;;;19.52;48.29;100176.53;2044040;28;2301;-64
2024/03/23 03:07:23;;;;;;;;;;;;;;;19.51;48.41;100169.31;2046106;28;2244;-64
2024/03/23 03:08:24;;;;;;;;;;;;;;;19.51;48.37;100175.03;2043383;28;2415;-64
2024/03/23 03:09:25;;;;;;;;;;;;;;;19.51;48.50;100177.19;2044593;28;2388;-64
2024/03/23 03:10:25;;;;;;;;;;;;;;;19.52;48.36;100178.69;2043735;28;2271;-64
2024/03/23 03:11:26;;;;;;;;;;;;;;;19.50;48.38;100179.31;2044722;28;2177;-64
2024/03/23 03:12:27;;;;;;;;;;;;;;;19.50;48.39;100176.44;2045686;28;2386;-64
2024/03/23 03:13:27;;;;;;;;;;;;;;;19.50;48.43;100179.31;2044338;28;2481;-64
2024/03/23 03:14:28;;;;;;;;;;;;;;;19.50;48.50;100170.72;2051061;28;2074;-64
2024/03/23 03:15:28;;;;;;;;;;;;;;;19.50;48.49;100167.84;2053225;28;2078;-64
2024/03/23 03:16:28;;;;;;;;;;;;;;;19.50;48.34;100167.84;2043988;28;2209;-64
2024/03/23 03:17:29;;;;;;;;;;;;;;;19.50;48.44;100164.25;2044853;28;2494;-64
2024/03/23 03:18:29;;;;;;;;;;;;;;;19.50;48.39;100164.97;2053081;28;2097;-64
2024/03/23 03:19:30;;;;;;;;;;;;;;;19.50;48.40;100161.38;2044317;28;2170;-64
2024/03/23 03:20:31;;;;;;;;;;;;;;;19.50;48.29;100164.25;2045569;28;2161;-64
2024/03/23 03:21:32;;;;;;;;;;;;;;;19.49;48.33;100163.47;2045270;28;2066;-64
2024/03/23 03:22:32;;;;;;;;;;;;;;;19.48;48.42;100167.75;2044629;28;2079;-64
2024/03/23 03:23:33;;;;;;;;;;;;;;;19.49;48.38;100169.22;2053241;28;1966;-64
2024/03/23 03:24:33;;;;;;;;;;;;;;;19.49;48.15;100163.47;2052772;28;2337;-64
2024/03/23 03:25:34;;;;;;;;;;;;;;;19.49;48.29;100157.72;2044358;28;2260;-64
2024/03/23 03:26:34;;;;;;;;;;;;;;;19.48;48.40;100147.66;2043473;28;2342;-64
2024/03/23 03:27:35;;;;;;;;;;;;;;;19.48;48.47;100144.78;2045944;28;1598;-64
2024/03/23 03:28:35;;;;;;;;;;;;;;;19.47;48.44;100149.06;2045040;28;1926;-64
2024/03/23 03:29:35;;;;;;;;;;;;;;;19.47;48.26;100143.31;2044049;28;2074;-64
2024/03/23 03:30:36;;;;;;;;;;;;;;;19.47;48.35;100143.31;2049358;28;6330;-64
2024/03/23 03:31:36;;;;;;;;;;;;;;;19.47;48.38;100149.06;2053266;28;1818;-64
2024/03/23 03:32:37;;;;;;;;;;;;;;;19.48;48.28;100144.06;2051917;28;2240;-64
2024/03/23 03:33:37;;;;;;;;;;;;;;;19.47;48.38;100154.81;2059632;28;2330;-64
2024/03/23 03:34:38;;;;;;;;;;;;;;;19.48;48.40;100147.66;2051235;28;2663;-64
2024/03/23 03:35:38;;;;;;;;;;;;;;;19.46;48.40;100153.31;2059425;28;2069;-64
2024/03/23 03:36:38;;;;;;;;;;;;;;;19.47;48.27;100149.06;2060128;28;2437;-64
2024/03/23 03:37:39;;;;;;;;;;;;;;;19.47;48.33;100149.06;2060048;28;2258;-64
2024/03/23 03:38:39;;;;;;;;;;;;;;;19.48;48.33;100153.41;2053213;28;1658;-64
2024/03/23 03:39:40;;;;;;;;;;;;;;;19.48;48.33;100150.53;2052998;28;2074;-64
2024/03/23 03:40:41;;;;;;;;;;;;;;;19.49;48.27;100143.38;2060257;28;1741;-64
2024/03/23 03:41:42;;;;;;;;;;;;;;;19.50;48.25;100147.75;2051329;28;2062;-64
2024/03/23 03:42:42;;;;;;;;;;;;;;;19.51;48.36;100143.47;2060500;28;2272;-64
2024/03/23 03:43:42;;;;;;;;;;;;;;;19.52;48.29;100144.94;2058962;28;1987;-64
2024/03/23 03:44:43;;;;;;;;;;;;;;;19.52;48.30;100144.94;2059194;28;2032;-64
2024/03/23 03:45:51;;;;;;;;;;;;;;;19.53;48.16;100139.94;2050798;28;2046;-64
2024/03/23 03:46:51;;;;;;;;;;;;;;;19.52;48.15;100139.22;2053832;28;1632;-64
2024/03/23 03:47:51;;;;;;;;;;;;;;;19.53;48.11;100140.66;2052035;28;2231;-64
2024/03/23 03:48:52;;;;;;;;;;;;;;;19.53;48.21;100134.94;2052399;28;2294;-64
2024/03/23 03:49:52;;;;;;;;;;;;;;;19.55;48.32;100134.28;2053416;28;2383;-64
2024/03/23 03:50:53;;;;;;;;;;;;;;;19.54;48.09;100130.66;2061619;28;1614;-64
2024/03/23 03:51:53;;;;;;;;;;;;;;;19.55;48.16;100143.63;2051419;28;2326;-64
2024/03/23 03:52:53;;;;;;;;;;;;;;;19.57;47.97;100137.97;2049845;28;2267;-64
2024/03/23 03:53:54;;;;;;;;;;;;;;;19.57;48.09;100137.97;2051934;28;1901;-64
2024/03/23 03:55:00;;;;;;;;;;;;;;;19.56;48.03;100122.13;2053670;28;1620;-64
2024/03/23 03:56:02;;;;;;;;;;;;;;;19.57;48.10;100129.34;2060693;28;1788;-64
2024/03/23 03:57:02;;;;;;;;;;;;;;;19.58;48.02;100118.59;2059395;28;2605;-64
2024/03/23 03:58:04;;;;;;;;;;;;;;;19.58;47.97;100122.19;2061384;28;1686;-64
2024/03/23 03:59:05;;;;;;;;;;;;;;;19.58;48.04;100122.19;2052666;28;1650;-64
2024/03/23 04:00:06;;;;;;;;;;;;;;;19.58;48.00;100124.34;2050551;28;6204;-64
2024/03/23 04:01:06;;;;;;;;;;;;;;;19.59;48.06;100125.81;2050001;28;2211;-64
2024/03/23 04:02:06;;;;;;;;;;;;;;;19.58;47.94;100125.06;2054494;28;1687;-64
2024/03/23 04:03:07;;;;;;;;;;;;;;;19.59;48.01;100132.28;2054912;28;2180;-64
2024/03/23 04:04:07;;;;;;;;;;;;;;;19.57;48.04;100129.34;2051882;28;2205;-64
2024/03/23 04:05:08;;;;;;;;;;;;;;;19.58;47.87;100125.06;2058949;28;1973;-64
2024/03/23 04:06:08;;;;;;;;;;;;;;;19.58;48.09;100130.81;2061671;28;1627;-64
2024/03/23 04:07:08;;;;;;;;;;;;;;;19.58;48.09;100130.81;2060082;28;2103;-64
2024/03/23 04:08:09;;;;;;;;;;;;;;;19.59;48.27;100132.28;2061248;28;1589;-64
2024/03/23 04:09:10;;;;;;;;;;;;;;;19.58;48.09;100130.81;2052460;28;2137;-64
2024/03/23 04:10:11;;;;;;;;;;;;;;;19.59;48.20;100128.69;2052190;28;2414;-64
2024/03/23 04:11:11;;;;;;;;;;;;;;;19.60;48.21;100135.91;2058382;28;2317;-64
2024/03/23 04:12:11;;;;;;;;;;;;;;;19.59;48.10;100132.28;2059791;28;1737;-64
2024/03/23 04:13:12;;;;;;;;;;;;;;;19.60;48.17;100133.75;2052019;28;2256;-64
2024/03/23 04:14:12;;;;;;;;;;;;;;;19.59;48.06;100131.56;2050196;28;2019;-64
2024/03/23 04:15:13;;;;;;;;;;;;;;;19.60;48.07;100128.00;2051562;28;2075;-64
2024/03/23 04:16:24;;;;;;;;;;;;;;;19.60;48.01;100125.13;2053374;28;1682;-64
2024/03/23 04:17:25;;;;;;;;;;;;;;;19.60;48.10;100124.41;2060764;28;2265;-64
2024/03/23 04:18:25;;;;;;;;;;;;;;;19.60;48.00;100122.28;2068955;28;1690;-64
2024/03/23 04:19:25;;;;;;;;;;;;;;;19.60;48.11;100122.28;2058808;28;2103;-64
2024/03/23 04:20:26;;;;;;;;;;;;;;;19.60;48.18;100119.41;2060343;28;2623;-64
2024/03/23 04:21:26;;;;;;;;;;;;;;;19.61;48.04;100117.28;2059844;28;1993;-64
2024/03/23 04:22:27;;;;;;;;;;;;;;;19.61;48.09;100120.88;2058401;28;2441;-64
2024/03/23 04:23:27;;;;;;;;;;;;;;;19.62;48.16;100116.59;2059154;28;2237;-64
2024/03/23 04:24:27;;;;;;;;;;;;;;;19.62;48.03;100113.72;2059011;28;2670;-64
2024/03/23 04:25:29;;;;;;;;;;;;;;;19.63;47.99;100109.47;2061076;28;1561;-64
2024/03/23 04:26:29;;;;;;;;;;;;;;;19.63;48.17;100105.84;2052572;28;1672;-64
2024/03/23 04:27:29;;;;;;;;;;;;;;;19.63;48.26;100100.88;2053620;28;1549;-64
2024/03/23 04:28:30;;;;;;;;;;;;;;;19.63;48.29;100106.59;2052101;28;1714;-64
2024/03/23 04:29:30;;;;;;;;;;;;;;;19.62;48.30;100108.00;2058528;28;2205;-64
2024/03/23 04:30:31;;;;;;;;;;;;;;;19.62;48.19;100113.72;2048944;28;6418;-64
2024/03/23 04:31:34;;;;;;;;;;;;;;;19.64;48.10;100108.06;2052765;28;2347;-64
2024/03/23 04:32:34;;;;;;;;;;;;;;;19.62;48.15;100102.25;2053114;28;2505;-64
2024/03/23 04:33:35;;;;;;;;;;;;;;;19.63;48.11;100103.72;2052739;28;1673;-64
2024/03/23 04:34:35;;;;;;;;;;;;;;;19.63;48.08;100092.25;2061549;28;2238;-64
2024/03/23 04:35:36;;;;;;;;;;;;;;;19.63;48.16;100098.00;2053589;28;2076;-64
2024/03/23 04:36:37;;;;;;;;;;;;;;;19.64;48.20;100101.59;2053892;28;1546;-64
2024/03/23 04:37:37;;;;;;;;;;;;;;;19.64;48.23;100104.47;2053765;28;2185;-64
2024/03/23 04:38:37;;;;;;;;;;;;;;;19.63;48.07;100103.72;2054144;28;1600;-64
2024/03/23 04:39:38;;;;;;;;;;;;;;;19.64;48.22;100101.59;2054435;28;2088;-64
2024/03/23 04:40:38;;;;;;;;;;;;;;;19.63;48.08;100092.25;2060825;28;2245;-64
2024/03/23 04:41:39;;;;;;;;;;;;;;;19.63;48.33;100095.13;2060813;28;2357;-64
2024/03/23 04:42:39;;;;;;;;;;;;;;;19.64;48.27;100087.97;2054662;28;2184;-64
2024/03/23 04:43:40;;;;;;;;;;;;;;;19.63;48.28;100086.50;2054224;28;1918;-64
2024/03/23 04:44:40;;;;;;;;;;;;;;;19.63;48.29;100086.50;2054554;28;2053;-64
2024/03/23 04:45:41;;;;;;;;;;;;;;;19.64;48.20;100084.34;2053424;28;2152;-64
2024/03/23 04:46:41;;;;;;;;;;;;;;;19.63;48.29;100089.38;2052917;28;2307;-64
2024/03/23 04:47:42;;;;;;;;;;;;;;;19.64;48.27;100087.97;2054005;28;2392;-64
2024/03/23 04:48:44;;;;;;;;;;;;;;;19.64;48.37;100087.97;2053986;28;1719;-64
2024/03/23 04:49:44;;;;;;;;;;;;;;;19.64;48.26;100087.97;2053849;28;2103;-64
2024/03/23 04:50:45;;;;;;;;;;;;;;;19.64;48.22;100082.22;2053669;28;2194;-64
2024/03/23 04:51:46;;;;;;;;;;;;;;;19.64;48.38;100079.34;2054467;28;2269;-64
2024/03/23 04:52:46;;;;;;;;;;;;;;;19.65;48.23;100080.84;2054180;28;1652;-64
2024/03/23 04:53:47;;;;;;;;;;;;;;;19.65;48.39;100077.97;2060444;28;2148;-64
2024/03/23 04:54:48;;;;;;;;;;;;;;;19.65;48.37;100069.34;2061660;28;1621;-64
2024/03/23 04:55:48;;;;;;;;;;;;;;;19.66;48.27;100072.94;2052369;28;2260;-64
2024/03/23 04:56:49;;;;;;;;;;;;;;;19.66;48.46;100079.44;2053508;28;2191;-64
2024/03/23 04:57:49;;;;;;;;;;;;;;;19.66;48.62;100073.69;2054864;28;1696;-64
2024/03/23 04:58:49;;;;;;;;;;;;;;;19.67;48.49;100080.16;2058233;28;2365;-64
2024/03/23 04:59:50;;;;;;;;;;;;;;;19.67;48.54;100080.16;2052786;28;1992;-64
2024/03/23 05:00:54;;;;;;;;;;;;;;;19.66;48.55;100079.44;2045005;28;6334;-64
2024/03/23 05:01:55;;;;;;;;;;;;;;;19.69;48.31;100080.25;2054858;28;2854;-64
2024/03/23 05:02:55;;;;;;;;;;;;;;;19.69;48.25;100076.66;2054275;28;1903;-64
2024/03/23 05:03:55;;;;;;;;;;;;;;;19.69;48.26;100076.66;2061557;28;2219;-64
2024/03/23 05:04:56;;;;;;;;;;;;;;;19.67;48.36;100069.41;2061776;28;2109;-64
2024/03/23 05:05:56;;;;;;;;;;;;;;;19.69;48.59;100070.91;2061844;28;2310;-64
2024/03/23 05:06:57;;;;;;;;;;;;;;;19.69;48.52;100060.16;2061233;28;2233;-64
2024/03/23 05:07:57;;;;;;;;;;;;;;;19.70;48.40;100063.75;2052722;28;2053;-64
2024/03/23 05:08:57;;;;;;;;;;;;;;;19.69;48.53;100059.44;2061201;28;2277;-64
2024/03/23 05:09:58;;;;;;;;;;;;;;;19.69;48.45;100059.44;2060230;28;2238;-64
2024/03/23 05:10:58;;;;;;;;;;;;;;;19.69;48.38;100063.03;2053693;28;2667;-64
2024/03/23 05:12:00;;;;;;;;;;;;;;;19.70;48.39;100063.75;2054245;28;2230;-64
2024/03/23 05:13:00;;;;;;;;;;;;;;;19.69;48.45;100062.31;2055158;28;1659;-64
2024/03/23 05:14:02;;;;;;;;;;;;;;;19.69;48.41;100065.16;2059633;28;2033;-64
2024/03/23 05:15:04;;;;;;;;;;;;;;;19.70;48.39;100063.75;2053119;28;2373;-65
2024/03/23 05:16:04;;;;;;;;;;;;;;;19.70;48.37;100061.66;2053329;28;2334;-64